sensor_id;sensor_type;location;lat;lon;timestamp;pressure;altitude;pressure_sealevel;temperature;humidity
80976;BME280;70437;49.466;11.002;2023-09-07T00:01:26;98594.47;;;20.19;83.43
80976;BME280;70437;49.466;11.002;2023-09-07T00:03:55;98599.91;;;20.19;83.37
80976;BME280;70437;49.466;11.002;2023-09-07T00:06:23;98590.94;;;20.19;83.06
80976;BME280;70437;49.466;11.002;2023-09-07T00:08:54;98591.19;;;20.17;83.13
80976;BME280;70437;49.466;11.002;2023-09-07T00:11:25;98593.13;;;20.12;83.91
80976;BME280;70437;49.466;11.002;2023-09-07T00:13:55;98600.19;;;20.08;85.05
80976;BME280;70437;49.466;11.002;2023-09-07T00:16:26;98596.41;;;19.93;86.75
80976;BME280;70437;49.466;11.002;2023-09-07T00:18:56;98601.03;;;19.93;88.25
80976;BME280;70437;49.466;11.002;2023-09-07T00:21:25;98599.97;;;19.84;90.00
80976;BME280;70437;49.466;11.002;2023-09-07T00:23:54;98593.72;;;19.78;91.09
80976;BME280;70437;49.466;11.002;2023-09-07T00:26:23;98597.78;;;19.76;93.55
80976;BME280;70437;49.466;11.002;2023-09-07T00:28:52;98596.69;;;19.72;94.68
80976;BME280;70437;49.466;11.002;2023-09-07T00:31:23;98596.69;;;19.72;94.87
80976;BME280;70437;49.466;11.002;2023-09-07T00:33:57;98596.91;;;19.55;98.95
80976;BME280;70437;49.466;11.002;2023-09-07T00:36:24;98597.72;;;19.40;100.00
80976;BME280;70437;49.466;11.002;2023-09-07T00:38:52;98598.00;;;19.43;100.00
80976;BME280;70437;49.466;11.002;2023-09-07T00:41:20;98597.47;;;19.47;100.00
80976;BME280;70437;49.466;11.002;2023-09-07T00:43:48;98606.72;;;19.56;100.00
80976;BME280;70437;49.466;11.002;2023-09-07T00:46:18;98603.72;;;19.52;100.00
80976;BME280;70437;49.466;11.002;2023-09-07T00:48:48;98599.34;;;19.46;100.00
80976;BME280;70437;49.466;11.002;2023-09-07T00:51:16;98601.00;;;19.47;100.00
80976;BME280;70437;49.466;11.002;2023-09-07T00:53:45;98601.25;;;19.40;100.00
80976;BME280;70437;49.466;11.002;2023-09-07T00:56:16;98599.63;;;19.39;100.00
80976;BME280;70437;49.466;11.002;2023-09-07T00:58:46;98593.91;;;19.46;100.00
80976;BME280;70437;49.466;11.002;2023-09-07T01:01:14;98593.38;;;19.49;100.00
80976;BME280;70437;49.466;11.002;2023-09-07T01:03:44;98589.03;;;19.43;100.00
80976;BME280;70437;49.466;11.002;2023-09-07T01:08:45;98590.66;;;19.29;100.00
80976;BME280;70437;49.466;11.002;2023-09-07T01:11:16;98581.94;;;19.32;100.00
80976;BME280;70437;49.466;11.002;2023-09-07T01:13:44;98575.44;;;19.33;100.00
80976;BME280;70437;49.466;11.002;2023-09-07T01:16:13;98585.75;;;19.36;100.00
80976;BME280;70437;49.466;11.002;2023-09-07T01:18:41;98577.31;;;19.32;100.00
80976;BME280;70437;49.466;11.002;2023-09-07T01:21:12;98584.66;;;19.37;100.00
80976;BME280;70437;49.466;11.002;2023-09-07T01:23:43;98582.50;;;19.29;100.00
80976;BME280;70437;49.466;11.002;2023-09-07T01:26:13;98580.59;;;19.29;100.00
80976;BME280;70437;49.466;11.002;2023-09-07T01:28:42;98574.91;;;19.31;100.00
80976;BME280;70437;49.466;11.002;2023-09-07T01:31:13;98579.22;;;19.27;100.00
80976;BME280;70437;49.466;11.002;2023-09-07T01:33:45;98580.31;;;19.15;100.00
80976;BME280;70437;49.466;11.002;2023-09-07T01:36:14;98578.63;;;19.04;100.00
80976;BME280;70437;49.466;11.002;2023-09-07T01:38:47;98581.34;;;18.94;100.00
80976;BME280;70437;49.466;11.002;2023-09-07T01:41:16;98572.38;;;18.99;100.00
80976;BME280;70437;49.466;11.002;2023-09-07T01:43:44;98578.03;;;18.82;100.00
80976;BME280;70437;49.466;11.002;2023-09-07T01:46:13;98576.56;;;18.64;100.00
80976;BME280;70437;49.466;11.002;2023-09-07T01:48:41;98579.63;;;18.73;100.00
80976;BME280;70437;49.466;11.002;2023-09-07T01:51:11;98570.19;;;18.85;100.00
80976;BME280;70437;49.466;11.002;2023-09-07T01:53:43;98573.41;;;18.77;100.00
80976;BME280;70437;49.466;11.002;2023-09-07T01:56:11;98572.31;;;18.83;100.00
80976;BME280;70437;49.466;11.002;2023-09-07T01:58:41;98577.22;;;18.86;100.00
80976;BME280;70437;49.466;11.002;2023-09-07T02:01:25;98571.81;;;18.86;100.00
80976;BME280;70437;49.466;11.002;2023-09-07T02:03:53;98571.25;;;18.84;100.00
80976;BME280;70437;49.466;11.002;2023-09-07T02:06:21;98568.78;;;18.78;100.00
80976;BME280;70437;49.466;11.002;2023-09-07T02:08:49;98567.69;;;18.79;100.00
80976;BME280;70437;49.466;11.002;2023-09-07T02:11:20;98573.38;;;18.72;100.00
80976;BME280;70437;49.466;11.002;2023-09-07T02:13:52;98573.09;;;18.74;100.00
80976;BME280;70437;49.466;11.002;2023-09-07T02:16:21;98570.41;;;18.79;100.00
80976;BME280;70437;49.466;11.002;2023-09-07T02:18:50;98573.91;;;18.69;100.00
80976;BME280;70437;49.466;11.002;2023-09-07T02:21:18;98580.91;;;18.60;100.00
80976;BME280;70437;49.466;11.002;2023-09-07T02:23:48;98579.19;;;18.43;100.00
80976;BME280;70437;49.466;11.002;2023-09-07T02:26:20;98580.28;;;18.48;100.00
80976;BME280;70437;49.466;11.002;2023-09-07T02:28:51;98582.50;;;18.56;100.00
80976;BME280;70437;49.466;11.002;2023-09-07T02:31:21;98576.28;;;18.60;100.00
80976;BME280;70437;49.466;11.002;2023-09-07T02:33:51;98578.97;;;18.50;100.00
80976;BME280;70437;49.466;11.002;2023-09-07T02:36:20;98579.78;;;18.56;100.00
80976;BME280;70437;49.466;11.002;2023-09-07T02:38:50;98579.53;;;18.57;100.00
80976;BME280;70437;49.466;11.002;2023-09-07T02:41:18;98585.50;;;18.54;100.00
80976;BME280;70437;49.466;11.002;2023-09-07T02:43:49;98574.03;;;18.42;100.00
80976;BME280;70437;49.466;11.002;2023-09-07T02:46:18;98571.28;;;18.32;100.00
80976;BME280;70437;49.466;11.002;2023-09-07T02:48:50;98580.16;;;18.22;100.00
80976;BME280;70437;49.466;11.002;2023-09-07T02:51:19;98583.44;;;18.24;100.00
80976;BME280;70437;49.466;11.002;2023-09-07T02:53:48;98581.41;;;18.04;100.00
80976;BME280;70437;49.466;11.002;2023-09-07T02:56:20;98576.97;;;17.88;100.00
80976;BME280;70437;49.466;11.002;2023-09-07T02:58:50;98584.81;;;17.89;100.00
80976;BME280;70437;49.466;11.002;2023-09-07T03:01:20;98588.06;;;17.86;100.00
80976;BME280;70437;49.466;11.002;2023-09-07T03:03:50;98591.56;;;17.82;100.00
80976;BME280;70437;49.466;11.002;2023-09-07T03:06:20;98589.34;;;17.79;100.00
80976;BME280;70437;49.466;11.002;2023-09-07T03:08:53;98582.03;;;17.79;100.00
80976;BME280;70437;49.466;11.002;2023-09-07T03:11:22;98582.81;;;17.75;100.00
80976;BME280;70437;49.466;11.002;2023-09-07T03:13:50;98582.13;;;17.62;100.00
80976;BME280;70437;49.466;11.002;2023-09-07T03:16:20;98579.31;;;17.47;100.00
80976;BME280;70437;49.466;11.002;2023-09-07T03:18:51;98580.31;;;17.41;100.00
80976;BME280;70437;49.466;11.002;2023-09-07T03:21:24;98574.13;;;17.46;100.00
80976;BME280;70437;49.466;11.002;2023-09-07T03:23:58;98582.59;;;17.54;100.00
80976;BME280;70437;49.466;11.002;2023-09-07T03:26:27;98579.91;;;17.54;100.00
80976;BME280;70437;49.466;11.002;2023-09-07T03:28:54;98584.75;;;17.52;100.00
80976;BME280;70437;49.466;11.002;2023-09-07T03:31:22;98576.38;;;17.54;100.00
80976;BME280;70437;49.466;11.002;2023-09-07T03:33:51;98584.22;;;17.50;100.00
80976;BME280;70437;49.466;11.002;2023-09-07T03:36:20;98578.81;;;17.50;100.00
80976;BME280;70437;49.466;11.002;2023-09-07T03:38:49;98573.59;;;17.43;100.00
80976;BME280;70437;49.466;11.002;2023-09-07T03:41:17;98577.56;;;17.36;100.00
80976;BME280;70437;49.466;11.002;2023-09-07T03:43:45;98580.28;;;17.36;100.00
80976;BME280;70437;49.466;11.002;2023-09-07T03:46:14;98581.31;;;17.30;100.00
80976;BME280;70437;49.466;11.002;2023-09-07T03:48:42;98580.44;;;17.24;100.00
80976;BME280;70437;49.466;11.002;2023-09-07T03:51:11;98584.03;;;17.30;100.00
80976;BME280;70437;49.466;11.002;2023-09-07T03:53:40;98581.34;;;17.35;100.00
80976;BME280;70437;49.466;11.002;2023-09-07T03:56:08;98581.09;;;17.36;100.00
80976;BME280;70437;49.466;11.002;2023-09-07T03:58:37;98582.56;;;17.49;100.00
80976;BME280;70437;49.466;11.002;2023-09-07T04:01:07;98585.59;;;17.53;100.00
80976;BME280;70437;49.466;11.002;2023-09-07T04:03:36;98586.69;;;17.57;100.00
80976;BME280;70437;49.466;11.002;2023-09-07T04:06:04;98579.00;;;17.43;100.00
80976;BME280;70437;49.466;11.002;2023-09-07T04:08:33;98582.47;;;17.39;100.00
80976;BME280;70437;49.466;11.002;2023-09-07T04:11:05;98581.41;;;17.40;100.00
80976;BME280;70437;49.466;11.002;2023-09-07T04:13:36;98583.50;;;17.33;100.00
80976;BME280;70437;49.466;11.002;2023-09-07T04:18:39;98578.75;;;17.18;100.00
80976;BME280;70437;49.466;11.002;2023-09-07T04:21:09;98575.22;;;17.17;100.00
80976;BME280;70437;49.466;11.002;2023-09-07T04:23:38;98582.91;;;17.26;100.00
80976;BME280;70437;49.466;11.002;2023-09-07T04:26:10;98584.28;;;17.28;100.00
80976;BME280;70437;49.466;11.002;2023-09-07T04:28:39;98575.59;;;17.26;100.00
80976;BME280;70437;49.466;11.002;2023-09-07T04:31:09;98584.56;;;17.32;100.00
80976;BME280;70437;49.466;11.002;2023-09-07T04:33:40;98592.91;;;17.25;100.00
80976;BME280;70437;49.466;11.002;2023-09-07T04:36:13;98592.25;;;17.13;100.00
80976;BME280;70437;49.466;11.002;2023-09-07T04:38:45;98592.81;;;17.15;100.00
80976;BME280;70437;49.466;11.002;2023-09-07T04:41:14;98599.22;;;17.09;100.00
80976;BME280;70437;49.466;11.002;2023-09-07T04:43:43;98598.47;;;17.13;100.00
80976;BME280;70437;49.466;11.002;2023-09-07T04:46:13;98597.09;;;17.11;100.00
80976;BME280;70437;49.466;11.002;2023-09-07T04:48:44;98591.38;;;17.07;100.00
80976;BME280;70437;49.466;11.002;2023-09-07T04:51:12;98602.66;;;16.99;100.00
80976;BME280;70437;49.466;11.002;2023-09-07T04:53:42;98598.50;;;16.91;100.00
80976;BME280;70437;49.466;11.002;2023-09-07T04:56:11;98604.94;;;16.85;100.00
80976;BME280;70437;49.466;11.002;2023-09-07T04:58:39;98604.72;;;16.92;100.00
80976;BME280;70437;49.466;11.002;2023-09-07T05:01:11;98615.81;;;16.90;100.00
80976;BME280;70437;49.466;11.002;2023-09-07T05:03:42;98609.41;;;16.97;100.00
80976;BME280;70437;49.466;11.002;2023-09-07T05:06:11;98609.63;;;16.95;100.00
80976;BME280;70437;49.466;11.002;2023-09-07T05:08:39;98614.06;;;17.01;100.00
80976;BME280;70437;49.466;11.002;2023-09-07T05:11:08;98618.19;;;17.09;100.00
80976;BME280;70437;49.466;11.002;2023-09-07T05:13:36;98617.94;;;17.10;100.00
80976;BME280;70437;49.466;11.002;2023-09-07T05:16:04;98620.88;;;17.09;100.00
80976;BME280;70437;49.466;11.002;2023-09-07T05:18:36;98616.06;;;17.11;100.00
80976;BME280;70437;49.466;11.002;2023-09-07T05:21:14;98619.56;;;17.11;100.00
80976;BME280;70437;49.466;11.002;2023-09-07T05:23:42;98619.81;;;17.10;100.00
80976;BME280;70437;49.466;11.002;2023-09-07T05:26:13;98628.50;;;17.12;100.00
80976;BME280;70437;49.466;11.002;2023-09-07T05:28:41;98629.63;;;17.16;100.00
80976;BME280;70437;49.466;11.002;2023-09-07T05:31:13;98634.25;;;17.15;100.00
80976;BME280;70437;49.466;11.002;2023-09-07T05:33:43;98626.66;;;17.17;100.00
80976;BME280;70437;49.466;11.002;2023-09-07T05:36:11;98636.00;;;17.32;100.00
80976;BME280;70437;49.466;11.002;2023-09-07T05:38:41;98628.53;;;17.39;100.00
80976;BME280;70437;49.466;11.002;2023-09-07T05:41:09;98628.84;;;17.42;100.00
80976;BME280;70437;49.466;11.002;2023-09-07T05:43:37;98626.78;;;17.55;100.00
80976;BME280;70437;49.466;11.002;2023-09-07T05:46:06;98627.66;;;17.60;100.00
80976;BME280;70437;49.466;11.002;2023-09-07T05:48:34;98630.94;;;17.67;100.00
80976;BME280;70437;49.466;11.002;2023-09-07T05:51:03;98627.88;;;17.59;100.00
80976;BME280;70437;49.466;11.002;2023-09-07T05:53:32;98632.13;;;17.50;100.00
80976;BME280;70437;49.466;11.002;2023-09-07T05:56:06;98632.50;;;17.58;100.00
80976;BME280;70437;49.466;11.002;2023-09-07T05:58:36;98629.72;;;17.53;100.00
80976;BME280;70437;49.466;11.002;2023-09-07T06:01:05;98628.16;;;17.57;100.00
80976;BME280;70437;49.466;11.002;2023-09-07T06:03:36;98637.72;;;17.65;100.00
80976;BME280;70437;49.466;11.002;2023-09-07T06:06:09;98634.69;;;17.88;100.00
80976;BME280;70437;49.466;11.002;2023-09-07T06:08:43;98641.00;;;17.99;100.00
80976;BME280;70437;49.466;11.002;2023-09-07T06:11:11;98637.19;;;17.95;100.00
80976;BME280;70437;49.466;11.002;2023-09-07T06:13:50;98643.84;;;18.14;100.00
80976;BME280;70437;49.466;11.002;2023-09-07T06:16:21;98634.53;;;18.00;100.00
80976;BME280;70437;49.466;11.002;2023-09-07T06:18:55;98645.69;;;18.09;100.00
80976;BME280;70437;49.466;11.002;2023-09-07T06:21:23;98636.53;;;18.20;100.00
80976;BME280;70437;49.466;11.002;2023-09-07T06:23:51;98641.94;;;18.15;100.00
80976;BME280;70437;49.466;11.002;2023-09-07T06:26:19;98632.19;;;18.14;100.00
80976;BME280;70437;49.466;11.002;2023-09-07T06:28:47;98631.75;;;18.32;100.00
80976;BME280;70437;49.466;11.002;2023-09-07T06:31:18;98627.81;;;18.55;100.00
80976;BME280;70437;49.466;11.002;2023-09-07T06:33:48;98633.03;;;18.62;100.00
80976;BME280;70437;49.466;11.002;2023-09-07T06:36:20;98639.38;;;18.83;100.00
80976;BME280;70437;49.466;11.002;2023-09-07T06:39:01;98641.59;;;18.96;100.00
80976;BME280;70437;49.466;11.002;2023-09-07T06:41:32;98636.97;;;18.91;100.00
80976;BME280;70437;49.466;11.002;2023-09-07T06:44:01;98635.94;;;18.98;100.00
80976;BME280;70437;49.466;11.002;2023-09-07T06:46:29;98645.91;;;18.87;100.00
80976;BME280;70437;49.466;11.002;2023-09-07T06:48:58;98645.19;;;19.07;100.00
80976;BME280;70437;49.466;11.002;2023-09-07T06:51:28;98647.16;;;19.32;100.00
80976;BME280;70437;49.466;11.002;2023-09-07T06:53:58;98650.72;;;19.48;100.00
80976;BME280;70437;49.466;11.002;2023-09-07T06:56:29;98644.22;;;19.59;100.00
80976;BME280;70437;49.466;11.002;2023-09-07T06:58:59;98642.38;;;19.64;100.00
80976;BME280;70437;49.466;11.002;2023-09-07T07:01:28;98646.19;;;19.74;100.00
80976;BME280;70437;49.466;11.002;2023-09-07T07:03:58;98641.56;;;19.84;100.00
80976;BME280;70437;49.466;11.002;2023-09-07T07:06:28;98638.53;;;19.91;100.00
80976;BME280;70437;49.466;11.002;2023-09-07T07:08:56;98642.63;;;20.04;100.00
80976;BME280;70437;49.466;11.002;2023-09-07T07:11:29;98647.50;;;20.17;100.00
80976;BME280;70437;49.466;11.002;2023-09-07T07:13:57;98638.78;;;20.40;100.00
80976;BME280;70437;49.466;11.002;2023-09-07T07:16:27;98642.84;;;20.53;100.00
80976;BME280;70437;49.466;11.002;2023-09-07T07:18:56;98642.78;;;20.79;100.00
80976;BME280;70437;49.466;11.002;2023-09-07T07:21:23;98644.09;;;20.91;100.00
80976;BME280;70437;49.466;11.002;2023-09-07T07:23:53;98637.00;;;20.95;100.00
80976;BME280;70437;49.466;11.002;2023-09-07T07:26:23;98638.59;;;21.07;100.00
80976;BME280;70437;49.466;11.002;2023-09-07T07:28:53;98636.38;;;21.14;100.00
80976;BME280;70437;49.466;11.002;2023-09-07T07:31:21;98643.38;;;21.25;100.00
80976;BME280;70437;49.466;11.002;2023-09-07T07:33:49;98641.50;;;21.26;100.00
80976;BME280;70437;49.466;11.002;2023-09-07T07:36:19;98642.56;;;21.35;100.00
80976;BME280;70437;49.466;11.002;2023-09-07T07:38:51;98636.50;;;21.48;98.29
80976;BME280;70437;49.466;11.002;2023-09-07T07:41:21;98643.88;;;21.42;96.53
80976;BME280;70437;49.466;11.002;2023-09-07T07:43:50;98640.25;;;21.57;97.50
80976;BME280;70437;49.466;11.002;2023-09-07T07:47:55;98643.97;;;21.72;82.41
80976;BME280;70437;49.466;11.002;2023-09-07T07:50:26;98640.63;;;21.80;69.34
80976;BME280;70437;49.466;11.002;2023-09-07T07:52:55;98633.47;;;21.89;67.60
80976;BME280;70437;49.466;11.002;2023-09-07T07:55:23;98632.38;;;21.90;66.06
80976;BME280;70437;49.466;11.002;2023-09-07T07:57:53;98639.34;;;22.06;65.79
80976;BME280;70437;49.466;11.002;2023-09-07T08:00:24;98634.81;;;22.26;63.53
80976;BME280;70437;49.466;11.002;2023-09-07T08:06:41;98628.09;;;22.42;61.35
80976;BME280;70437;49.466;11.002;2023-09-07T08:09:11;98632.81;;;22.60;61.00
80976;BME280;70437;49.466;11.002;2023-09-07T08:11:44;98632.81;;;22.60;59.89
80976;BME280;70437;49.466;11.002;2023-09-07T08:14:13;98635.72;;;22.69;59.08
80976;BME280;70437;49.466;11.002;2023-09-07T08:16:42;98640.59;;;22.72;58.53
80976;BME280;70437;49.466;11.002;2023-09-07T08:19:11;98633.81;;;22.69;nan
80976;BME280;70437;49.466;11.002;2023-09-07T08:21:43;98637.09;;;22.66;59.18
80976;BME280;70437;49.466;11.002;2023-09-07T08:24:13;98633.38;;;22.81;58.97
80976;BME280;70437;49.466;11.002;2023-09-07T08:26:42;98640.50;;;22.82;58.22
80976;BME280;70437;49.466;11.002;2023-09-07T08:29:12;98637.41;;;23.13;58.57
80976;BME280;70437;49.466;11.002;2023-09-07T08:31:41;98643.69;;;23.32;56.96
80976;BME280;70437;49.466;11.002;2023-09-07T08:34:12;98639.53;;;23.35;57.17
80976;BME280;70437;49.466;11.002;2023-09-07T08:36:44;98641.53;;;23.48;57.04
80976;BME280;70437;49.466;11.002;2023-09-07T08:39:16;98639.41;;;23.64;56.68
80976;BME280;70437;49.466;11.002;2023-09-07T08:41:44;98643.72;;;23.70;56.35
80976;BME280;70437;49.466;11.002;2023-09-07T08:44:29;98648.66;;;23.87;54.65
80976;BME280;70437;49.466;11.002;2023-09-07T08:46:59;98652.06;;;23.98;55.64
80976;BME280;70437;49.466;11.002;2023-09-07T08:49:28;98644.78;;;24.07;54.99
80976;BME280;70437;49.466;11.002;2023-09-07T08:52:00;98641.13;;;23.98;53.39
80976;BME280;70437;49.466;11.002;2023-09-07T08:54:29;98647.75;;;24.24;53.06
80976;BME280;70437;49.466;11.002;2023-09-07T08:57:03;98643.47;;;24.37;53.19
80976;BME280;70437;49.466;11.002;2023-09-07T08:59:32;98642.16;;;24.48;52.69
80976;BME280;70437;49.466;11.002;2023-09-07T09:02:01;98638.53;;;24.53;52.87
80976;BME280;70437;49.466;11.002;2023-09-07T09:04:31;98645.94;;;24.66;51.80
80976;BME280;70437;49.466;11.002;2023-09-07T09:07:03;98640.97;;;25.23;49.55
80976;BME280;70437;49.466;11.002;2023-09-07T09:09:32;98637.59;;;26.43;46.09
80976;BME280;70437;49.466;11.002;2023-09-07T09:12:07;98642.91;;;27.28;43.74
80976;BME280;70437;49.466;11.002;2023-09-07T09:14:36;98639.84;;;27.64;41.88
80976;BME280;70437;49.466;11.002;2023-09-07T09:17:06;98646.03;;;27.87;41.45
80976;BME280;70437;49.466;11.002;2023-09-07T09:19:36;98642.13;;;27.71;41.39
80976;BME280;70437;49.466;11.002;2023-09-07T09:22:06;98645.03;;;28.35;40.30
80976;BME280;70437;49.466;11.002;2023-09-07T09:24:35;98641.53;;;28.56;40.12
80976;BME280;70437;49.466;11.002;2023-09-07T09:27:06;98638.19;;;28.80;39.38
80976;BME280;70437;49.466;11.002;2023-09-07T09:29:35;98636.06;;;28.85;39.92
80976;BME280;70437;49.466;11.002;2023-09-07T09:32:06;98638.97;;;28.89;39.32
80976;BME280;70437;49.466;11.002;2023-09-07T09:34:38;98626.06;;;28.72;38.24
80976;BME280;70437;49.466;11.002;2023-09-07T09:37:14;98619.34;;;29.20;38.06
80976;BME280;70437;49.466;11.002;2023-09-07T09:39:48;98621.56;;;29.56;38.42
80976;BME280;70437;49.466;11.002;2023-09-07T09:42:20;98618.16;;;29.71;36.53
80976;BME280;70437;49.466;11.002;2023-09-07T09:44:49;98625.50;;;29.67;35.26
80976;BME280;70437;49.466;11.002;2023-09-07T09:47:20;98626.25;;;30.43;33.49
80976;BME280;70437;49.466;11.002;2023-09-07T09:49:51;98623.97;;;29.58;35.95
80976;BME280;70437;49.466;11.002;2023-09-07T09:52:21;98620.38;;;30.11;35.34
80976;BME280;70437;49.466;11.002;2023-09-07T09:54:51;98624.06;;;29.40;35.97
80976;BME280;70437;49.466;11.002;2023-09-07T09:57:20;98623.41;;;29.85;35.68
80976;BME280;70437;49.466;11.002;2023-09-07T09:59:49;98629.50;;;30.45;35.00
80976;BME280;70437;49.466;11.002;2023-09-07T10:02:19;98623.38;;;30.52;34.98
80976;BME280;70437;49.466;11.002;2023-09-07T10:04:51;98623.16;;;30.11;34.67
80976;BME280;70437;49.466;11.002;2023-09-07T10:07:41;98615.97;;;30.77;34.53
80976;BME280;70437;49.466;11.002;2023-09-07T10:10:12;98616.94;;;30.60;34.45
80976;BME280;70437;49.466;11.002;2023-09-07T10:12:41;98606.69;;;31.21;34.01
80976;BME280;70437;49.466;11.002;2023-09-07T10:15:20;98611.78;;;31.32;34.05
80976;BME280;70437;49.466;11.002;2023-09-07T10:17:49;98608.88;;;30.55;35.08
80976;BME280;70437;49.466;11.002;2023-09-07T10:20:20;98593.72;;;30.73;34.09
80976;BME280;70437;49.466;11.002;2023-09-07T10:23:03;98596.13;;;31.52;31.92
80976;BME280;70437;49.466;11.002;2023-09-07T10:25:36;98599.75;;;31.80;31.64
80976;BME280;70437;49.466;11.002;2023-09-07T10:28:05;98604.03;;;32.65;29.40
80976;BME280;70437;49.466;11.002;2023-09-07T10:30:35;98599.59;;;32.17;30.59
80976;BME280;70437;49.466;11.002;2023-09-07T10:33:04;98602.44;;;32.36;29.88
80976;BME280;70437;49.466;11.002;2023-09-07T10:35:35;98588.88;;;31.87;30.78
80976;BME280;70437;49.466;11.002;2023-09-07T10:38:06;98594.00;;;31.73;31.31
80976;BME280;70437;49.466;11.002;2023-09-07T10:40:38;98595.31;;;32.19;29.53
80976;BME280;70437;49.466;11.002;2023-09-07T10:43:07;98590.63;;;31.80;30.94
80976;BME280;70437;49.466;11.002;2023-09-07T10:45:35;98582.63;;;32.66;29.49
80976;BME280;70437;49.466;11.002;2023-09-07T10:48:05;98585.94;;;32.24;30.00
80976;BME280;70437;49.466;11.002;2023-09-07T10:50:43;98584.06;;;32.28;29.62
80976;BME280;70437;49.466;11.002;2023-09-07T10:53:14;98574.53;;;31.17;30.43
80976;BME280;70437;49.466;11.002;2023-09-07T10:55:42;98566.44;;;31.24;30.40
80976;BME280;70437;49.466;11.002;2023-09-07T10:58:12;98580.72;;;32.07;29.29
80976;BME280;70437;49.466;11.002;2023-09-07T11:00:56;98574.41;;;31.66;29.15
80976;BME280;70437;49.466;11.002;2023-09-07T11:03:26;98569.84;;;32.45;28.34
80976;BME280;70437;49.466;11.002;2023-09-07T11:05:57;98579.38;;;32.32;28.05
80976;BME280;70437;49.466;11.002;2023-09-07T11:08:33;98574.13;;;32.59;27.07
80976;BME280;70437;49.466;11.002;2023-09-07T11:11:02;98570.00;;;32.37;27.92
80976;BME280;70437;49.466;11.002;2023-09-07T11:15:49;98563.59;;;32.49;27.26
80976;BME280;70437;49.466;11.002;2023-09-07T11:18:19;98556.28;;;31.96;27.43
80976;BME280;70437;49.466;11.002;2023-09-07T11:20:50;98564.66;;;32.28;26.78
80976;BME280;70437;49.466;11.002;2023-09-07T11:23:21;98560.63;;;32.57;25.52
80976;BME280;70437;49.466;11.002;2023-09-07T11:25:51;98560.44;;;32.50;26.63
80976;BME280;70437;49.466;11.002;2023-09-07T11:28:20;98561.25;;;32.66;26.64
80976;BME280;70437;49.466;11.002;2023-09-07T11:30:52;98563.22;;;33.52;25.83
80976;BME280;70437;49.466;11.002;2023-09-07T11:33:22;98560.13;;;33.03;26.89
80976;BME280;70437;49.466;11.002;2023-09-07T11:35:52;98569.34;;;33.07;26.11
80976;BME280;70437;49.466;11.002;2023-09-07T11:38:22;98560.22;;;33.61;24.44
80976;BME280;70437;49.466;11.002;2023-09-07T11:40:51;98559.72;;;33.20;26.08
80976;BME280;70437;49.466;11.002;2023-09-07T11:43:21;98561.50;;;32.77;25.11
80976;BME280;70437;49.466;11.002;2023-09-07T11:45:52;98552.78;;;33.30;25.80
80976;BME280;70437;49.466;11.002;2023-09-07T11:48:22;98558.94;;;33.39;24.32
80976;BME280;70437;49.466;11.002;2023-09-07T11:50:52;98561.53;;;33.48;25.65
80976;BME280;70437;49.466;11.002;2023-09-07T11:53:21;98564.59;;;33.07;24.84
80976;BME280;70437;49.466;11.002;2023-09-07T11:55:50;98558.69;;;33.63;25.04
80976;BME280;70437;49.466;11.002;2023-09-07T11:58:24;98553.19;;;33.48;24.11
80976;BME280;70437;49.466;11.002;2023-09-07T12:00:58;98554.84;;;33.91;24.94
80976;BME280;70437;49.466;11.002;2023-09-07T12:03:29;98551.47;;;34.01;24.63
80976;BME280;70437;49.466;11.002;2023-09-07T12:06:01;98556.56;;;34.41;23.97
80976;BME280;70437;49.466;11.002;2023-09-07T12:08:30;98549.72;;;34.35;23.52
80976;BME280;70437;49.466;11.002;2023-09-07T12:10:59;98551.50;;;34.24;23.83
80976;BME280;70437;49.466;11.002;2023-09-07T12:13:28;98544.03;;;33.66;25.42
80976;BME280;70437;49.466;11.002;2023-09-07T12:16:03;98539.88;;;33.76;24.57
80976;BME280;70437;49.466;11.002;2023-09-07T12:18:34;98534.94;;;34.31;24.20
80976;BME280;70437;49.466;11.002;2023-09-07T12:21:04;98538.19;;;34.83;23.93
80976;BME280;70437;49.466;11.002;2023-09-07T12:23:33;98534.75;;;34.43;24.17
80976;BME280;70437;49.466;11.002;2023-09-07T12:26:02;98532.16;;;34.54;23.41
80976;BME280;70437;49.466;11.002;2023-09-07T12:28:32;98530.63;;;34.57;23.97
80976;BME280;70437;49.466;11.002;2023-09-07T12:31:03;98522.53;;;34.48;23.89
80976;BME280;70437;49.466;11.002;2023-09-07T12:33:33;98525.63;;;34.43;23.57
80976;BME280;70437;49.466;11.002;2023-09-07T12:36:03;98527.66;;;34.00;24.10
80976;BME280;70437;49.466;11.002;2023-09-07T12:38:36;98524.44;;;34.21;23.76
80976;BME280;70437;49.466;11.002;2023-09-07T12:41:05;98523.88;;;34.58;24.25
80976;BME280;70437;49.466;11.002;2023-09-07T12:43:36;98524.34;;;34.63;24.11
80976;BME280;70437;49.466;11.002;2023-09-07T12:46:15;98520.34;;;34.38;23.87
80976;BME280;70437;49.466;11.002;2023-09-07T12:48:44;98510.13;;;34.45;23.86
80976;BME280;70437;49.466;11.002;2023-09-07T12:51:13;98509.81;;;34.47;23.75
80976;BME280;70437;49.466;11.002;2023-09-07T12:53:43;98517.72;;;34.22;23.54
80976;BME280;70437;49.466;11.002;2023-09-07T12:56:12;98509.66;;;34.40;23.25
80976;BME280;70437;49.466;11.002;2023-09-07T12:58:43;98506.22;;;34.47;23.52
80976;BME280;70437;49.466;11.002;2023-09-07T13:01:12;98505.06;;;35.01;23.32
80976;BME280;70437;49.466;11.002;2023-09-07T13:03:46;98499.25;;;34.86;23.75
80976;BME280;70437;49.466;11.002;2023-09-07T13:06:17;98508.53;;;35.24;23.92
80976;BME280;70437;49.466;11.002;2023-09-07T13:08:47;98499.91;;;34.76;23.21
80976;BME280;70437;49.466;11.002;2023-09-07T13:11:17;98498.81;;;35.11;23.50
80976;BME280;70437;49.466;11.002;2023-09-07T13:13:46;98501.94;;;35.39;23.16